sensor_id;sensor_type;location;lat;lon;timestamp;temperature;humidity
25302;DHT22;13243;50.888;4.724;2023-04-03T00:04:58;2.80;99.90
25302;DHT22;13243;50.888;4.724;2023-04-03T00:09:59;2.60;99.90
25302;DHT22;13243;50.888;4.724;2023-04-03T00:15:01;2.50;99.90
25302;DHT22;13243;50.888;4.724;2023-04-03T00:20:04;2.60;99.90
25302;DHT22;13243;50.888;4.724;2023-04-03T00:25:07;2.60;99.90
25302;DHT22;13243;50.888;4.724;2023-04-03T00:30:12;2.50;99.90
25302;DHT22;13243;50.888;4.724;2023-04-03T00:35:15;2.40;99.90
25302;DHT22;13243;50.888;4.724;2023-04-03T00:40:21;2.40;99.90
25302;DHT22;13243;50.888;4.724;2023-04-03T00:45:30;2.40;99.90
25302;DHT22;13243;50.888;4.724;2023-04-03T00:50:36;2.30;99.90
25302;DHT22;13243;50.888;4.724;2023-04-03T00:55:39;2.30;99.90
25302;DHT22;13243;50.888;4.724;2023-04-03T01:00:45;2.30;99.90
25302;DHT22;13243;50.888;4.724;2023-04-03T01:05:48;2.20;99.90
25302;DHT22;13243;50.888;4.724;2023-04-03T01:10:50;2.30;99.90
25302;DHT22;13243;50.888;4.724;2023-04-03T01:15:52;2.20;99.90
25302;DHT22;13243;50.888;4.724;2023-04-03T01:26:14;2.30;99.90
25302;DHT22;13243;50.888;4.724;2023-04-03T01:31:31;2.30;99.90
25302;DHT22;13243;50.888;4.724;2023-04-03T01:36:35;2.20;99.90
25302;DHT22;13243;50.888;4.724;2023-04-03T01:41:37;2.20;99.90
25302;DHT22;13243;50.888;4.724;2023-04-03T01:46:38;2.20;99.90
25302;DHT22;13243;50.888;4.724;2023-04-03T01:51:40;2.20;99.90
25302;DHT22;13243;50.888;4.724;2023-04-03T01:56:42;2.30;99.90
25302;DHT22;13243;50.888;4.724;2023-04-03T02:01:44;2.20;99.90
25302;DHT22;13243;50.888;4.724;2023-04-03T02:06:46;2.30;99.90
25302;DHT22;13243;50.888;4.724;2023-04-03T02:11:48;2.30;99.90
25302;DHT22;13243;50.888;4.724;2023-04-03T02:16:50;2.30;99.90
25302;DHT22;13243;50.888;4.724;2023-04-03T02:21:52;2.30;99.90
25302;DHT22;13243;50.888;4.724;2023-04-03T02:26:54;2.20;99.90
25302;DHT22;13243;50.888;4.724;2023-04-03T02:31:56;2.20;99.90
25302;DHT22;13243;50.888;4.724;2023-04-03T02:36:58;2.10;99.90
25302;DHT22;13243;50.888;4.724;2023-04-03T02:42:00;2.10;99.90
25302;DHT22;13243;50.888;4.724;2023-04-03T02:47:02;1.90;99.90
25302;DHT22;13243;50.888;4.724;2023-04-03T02:52:04;1.90;99.90
25302;DHT22;13243;50.888;4.724;2023-04-03T02:57:06;1.80;99.90
25302;DHT22;13243;50.888;4.724;2023-04-03T03:02:10;1.80;99.90
25302;DHT22;13243;50.888;4.724;2023-04-03T03:07:13;1.90;99.90
25302;DHT22;13243;50.888;4.724;2023-04-03T03:12:15;1.70;99.90
25302;DHT22;13243;50.888;4.724;2023-04-03T03:17:17;1.80;99.90
25302;DHT22;13243;50.888;4.724;2023-04-03T03:22:19;1.70;99.90
25302;DHT22;13243;50.888;4.724;2023-04-03T03:27:21;1.70;99.90
25302;DHT22;13243;50.888;4.724;2023-04-03T03:32:24;1.60;99.90
25302;DHT22;13243;50.888;4.724;2023-04-03T03:37:25;1.60;99.90
25302;DHT22;13243;50.888;4.724;2023-04-03T03:42:28;1.60;99.90
25302;DHT22;13243;50.888;4.724;2023-04-03T03:47:30;1.50;99.90
25302;DHT22;13243;50.888;4.724;2023-04-03T03:52:32;1.40;99.90
25302;DHT22;13243;50.888;4.724;2023-04-03T03:57:34;1.40;99.90
25302;DHT22;13243;50.888;4.724;2023-04-03T04:02:36;1.40;99.90
25302;DHT22;13243;50.888;4.724;2023-04-03T04:07:38;1.40;99.90
25302;DHT22;13243;50.888;4.724;2023-04-03T04:12:40;1.30;99.90
25302;DHT22;13243;50.888;4.724;2023-04-03T04:17:42;1.30;99.90
25302;DHT22;13243;50.888;4.724;2023-04-03T04:22:44;1.00;99.90
25302;DHT22;13243;50.888;4.724;2023-04-03T04:27:46;1.10;99.90
25302;DHT22;13243;50.888;4.724;2023-04-03T04:32:48;1.30;99.90
25302;DHT22;13243;50.888;4.724;2023-04-03T04:37:50;1.10;99.90
25302;DHT22;13243;50.888;4.724;2023-04-03T04:42:52;1.10;99.90
25302;DHT22;13243;50.888;4.724;2023-04-03T04:47:55;1.10;99.90
25302;DHT22;13243;50.888;4.724;2023-04-03T04:52:57;1.10;99.90
25302;DHT22;13243;50.888;4.724;2023-04-03T04:57:59;0.90;99.90
25302;DHT22;13243;50.888;4.724;2023-04-03T05:03:01;1.10;99.90
25302;DHT22;13243;50.888;4.724;2023-04-03T05:08:04;0.90;99.90
25302;DHT22;13243;50.888;4.724;2023-04-03T05:13:06;1.00;99.90
25302;DHT22;13243;50.888;4.724;2023-04-03T05:18:08;1.10;99.90
25302;DHT22;13243;50.888;4.724;2023-04-03T05:23:10;1.10;99.90
25302;DHT22;13243;50.888;4.724;2023-04-03T05:28:13;1.10;99.90
25302;DHT22;13243;50.888;4.724;2023-04-03T05:33:15;1.00;99.90
25302;DHT22;13243;50.888;4.724;2023-04-03T05:38:17;1.10;99.90
25302;DHT22;13243;50.888;4.724;2023-04-03T05:43:19;1.20;99.90
25302;DHT22;13243;50.888;4.724;2023-04-03T05:48:20;1.10;99.90
25302;DHT22;13243;50.888;4.724;2023-04-03T05:53:27;1.20;99.90
25302;DHT22;13243;50.888;4.724;2023-04-03T05:58:29;1.20;99.90
25302;DHT22;13243;50.888;4.724;2023-04-03T06:03:31;1.30;99.90
25302;DHT22;13243;50.888;4.724;2023-04-03T06:08:33;1.40;99.90
25302;DHT22;13243;50.888;4.724;2023-04-03T06:13:35;1.60;99.90
25302;DHT22;13243;50.888;4.724;2023-04-03T06:18:37;1.70;99.90
25302;DHT22;13243;50.888;4.724;2023-04-03T06:23:39;1.70;99.90
25302;DHT22;13243;50.888;4.724;2023-04-03T06:28:42;1.80;99.90
25302;DHT22;13243;50.888;4.724;2023-04-03T06:33:44;1.90;99.90
25302;DHT22;13243;50.888;4.724;2023-04-03T06:38:46;2.00;99.90
25302;DHT22;13243;50.888;4.724;2023-04-03T06:43:48;2.20;99.90
25302;DHT22;13243;50.888;4.724;2023-04-03T06:48:50;2.40;99.90
25302;DHT22;13243;50.888;4.724;2023-04-03T06:53:55;2.50;99.90
25302;DHT22;13243;50.888;4.724;2023-04-03T06:58:57;2.70;99.90
25302;DHT22;13243;50.888;4.724;2023-04-03T07:03:59;2.90;99.90
25302;DHT22;13243;50.888;4.724;2023-04-03T07:09:02;3.60;99.90
25302;DHT22;13243;50.888;4.724;2023-04-03T07:14:04;3.30;99.90
25302;DHT22;13243;50.888;4.724;2023-04-03T07:19:07;3.50;99.90
25302;DHT22;13243;50.888;4.724;2023-04-03T07:24:11;3.50;99.90
25302;DHT22;13243;50.888;4.724;2023-04-03T07:29:17;3.70;99.90
25302;DHT22;13243;50.888;4.724;2023-04-03T07:34:19;3.90;99.90
25302;DHT22;13243;50.888;4.724;2023-04-03T07:39:21;4.00;99.90
25302;DHT22;13243;50.888;4.724;2023-04-03T07:44:23;4.20;99.90
25302;DHT22;13243;50.888;4.724;2023-04-03T07:49:25;4.30;99.90
25302;DHT22;13243;50.888;4.724;2023-04-03T07:54:27;4.50;99.90
25302;DHT22;13243;50.888;4.724;2023-04-03T07:59:30;4.70;99.90
25302;DHT22;13243;50.888;4.724;2023-04-03T08:04:32;4.90;99.90
25302;DHT22;13243;50.888;4.724;2023-04-03T08:09:34;5.10;99.90
25302;DHT22;13243;50.888;4.724;2023-04-03T08:14:36;5.50;99.90
25302;DHT22;13243;50.888;4.724;2023-04-03T08:19:39;5.40;99.90
25302;DHT22;13243;50.888;4.724;2023-04-03T08:24:41;5.60;99.90
25302;DHT22;13243;50.888;4.724;2023-04-03T08:29:59;5.80;99.90
25302;DHT22;13243;50.888;4.724;2023-04-03T08:35:02;5.80;99.90
25302;DHT22;13243;50.888;4.724;2023-04-03T08:40:06;6.10;99.90
25302;DHT22;13243;50.888;4.724;2023-04-03T08:45:59;6.30;99.90
25302;DHT22;13243;50.888;4.724;2023-04-03T08:50:50;6.40;99.90
25302;DHT22;13243;50.888;4.724;2023-04-03T08:55:55;6.80;99.90
25302;DHT22;13243;50.888;4.724;2023-04-03T09:06:22;7.10;99.90
25302;DHT22;13243;50.888;4.724;2023-04-03T09:11:35;7.20;99.90
25302;DHT22;13243;50.888;4.724;2023-04-03T09:21:39;7.60;99.90
25302;DHT22;13243;50.888;4.724;2023-04-03T09:26:58;7.60;99.90
25302;DHT22;13243;50.888;4.724;2023-04-03T09:32:02;7.80;99.90
25302;DHT22;13243;50.888;4.724;2023-04-03T09:37:35;8.10;99.90
25302;DHT22;13243;50.888;4.724;2023-04-03T09:42:41;8.10;99.90
25302;DHT22;13243;50.888;4.724;2023-04-03T09:47:49;8.10;99.90
25302;DHT22;13243;50.888;4.724;2023-04-03T09:53:38;8.50;99.90
25302;DHT22;13243;50.888;4.724;2023-04-03T09:58:40;8.50;99.90
25302;DHT22;13243;50.888;4.724;2023-04-03T10:04:13;8.70;99.90
25302;DHT22;13243;50.888;4.724;2023-04-03T10:09:20;8.80;99.90
25302;DHT22;13243;50.888;4.724;2023-04-03T10:14:22;8.70;99.90
25302;DHT22;13243;50.888;4.724;2023-04-03T10:24:52;8.80;99.90
25302;DHT22;13243;50.888;4.724;2023-04-03T10:46:08;9.60;99.90
25302;DHT22;13243;50.888;4.724;2023-04-03T10:51:22;9.60;99.90
25302;DHT22;13243;50.888;4.724;2023-04-03T11:01:36;10.10;99.90
25302;DHT22;13243;50.888;4.724;2023-04-03T11:06:51;10.20;99.90
25302;DHT22;13243;50.888;4.724;2023-04-03T11:12:06;10.40;99.90
25302;DHT22;13243;50.888;4.724;2023-04-03T11:28:04;10.10;99.90
25302;DHT22;13243;50.888;4.724;2023-04-03T11:38:27;10.70;99.90
25302;DHT22;13243;50.888;4.724;2023-04-03T11:43:31;10.80;99.90
25302;DHT22;13243;50.888;4.724;2023-04-03T11:48:45;10.80;99.90
25302;DHT22;13243;50.888;4.724;2023-04-03T11:53:48;10.80;99.90
25302;DHT22;13243;50.888;4.724;2023-04-03T12:04:17;11.20;99.90
25302;DHT22;13243;50.888;4.724;2023-04-03T12:14:41;10.90;99.90
25302;DHT22;13243;50.888;4.724;2023-04-03T12:19:43;11.50;99.90
25302;DHT22;13243;50.888;4.724;2023-04-03T12:24:49;11.50;99.90
25302;DHT22;13243;50.888;4.724;2023-04-03T12:50:55;12.20;99.90
25302;DHT22;13243;50.888;4.724;2023-04-03T12:55:58;12.70;99.90
25302;DHT22;13243;50.888;4.724;2023-04-03T13:01:24;13.00;99.90
25302;DHT22;13243;50.888;4.724;2023-04-03T13:06:47;12.80;99.90
25302;DHT22;13243;50.888;4.724;2023-04-03T13:12:10;13.00;99.90
25302;DHT22;13243;50.888;4.724;2023-04-03T13:17:14;12.80;99.90
25302;DHT22;13243;50.888;4.724;2023-04-03T13:22:29;12.30;99.90
25302;DHT22;13243;50.888;4.724;2023-04-03T13:27:32;12.90;99.90
25302;DHT22;13243;50.888;4.724;2023-04-03T13:32:34;12.70;99.90
25302;DHT22;13243;50.888;4.724;2023-04-03T13:37:37;13.80;99.90
25302;DHT22;13243;50.888;4.724;2023-04-03T13:42:41;12.80;99.90
25302;DHT22;13243;50.888;4.724;2023-04-03T13:47:44;14.00;99.90
25302;DHT22;13243;50.888;4.724;2023-04-03T13:52:59;13.80;99.90
25302;DHT22;13243;50.888;4.724;2023-04-03T13:58:19;14.00;99.90
25302;DHT22;13243;50.888;4.724;2023-04-03T14:08:41;14.80;99.90
25302;DHT22;13243;50.888;4.724;2023-04-03T14:13:45;15.30;99.90
25302;DHT22;13243;50.888;4.724;2023-04-03T14:18:49;15.20;99.90
25302;DHT22;13243;50.888;4.724;2023-04-03T14:23:51;15.20;99.90
25302;DHT22;13243;50.888;4.724;2023-04-03T14:28:54;15.50;99.90
25302;DHT22;13243;50.888;4.724;2023-04-03T14:33:57;15.80;99.90
25302;DHT22;13243;50.888;4.724;2023-04-03T14:38:59;16.20;99.90
25302;DHT22;13243;50.888;4.724;2023-04-03T14:44:02;16.30;99.90
25302;DHT22;13243;50.888;4.724;2023-04-03T14:49:16;16.60;99.90
25302;DHT22;13243;50.888;4.724;2023-04-03T14:54:21;16.00;99.90
25302;DHT22;13243;50.888;4.724;2023-04-03T14:59:28;16.30;99.90
25302;DHT22;13243;50.888;4.724;2023-04-03T15:04:31;16.60;99.90
25302;DHT22;13243;50.888;4.724;2023-04-03T15:09:35;15.60;99.90
25302;DHT22;13243;50.888;4.724;2023-04-03T15:14:38;16.80;99.90
25302;DHT22;13243;50.888;4.724;2023-04-03T15:19:43;17.40;99.90
25302;DHT22;13243;50.888;4.724;2023-04-03T15:24:45;17.40;99.90
25302;DHT22;13243;50.888;4.724;2023-04-03T15:29:47;16.50;99.90
25302;DHT22;13243;50.888;4.724;2023-04-03T15:34:49;16.80;99.90
25302;DHT22;13243;50.888;4.724;2023-04-03T15:39:52;16.90;99.90
25302;DHT22;13243;50.888;4.724;2023-04-03T15:44:54;17.70;99.90
25302;DHT22;13243;50.888;4.724;2023-04-03T15:49:56;17.80;99.90
25302;DHT22;13243;50.888;4.724;2023-04-03T15:54:59;17.80;99.90
25302;DHT22;13243;50.888;4.724;2023-04-03T16:00:01;17.20;99.90
25302;DHT22;13243;50.888;4.724;2023-04-03T16:05:03;16.80;99.90
25302;DHT22;13243;50.888;4.724;2023-04-03T16:10:07;16.90;99.90
25302;DHT22;13243;50.888;4.724;2023-04-03T16:15:10;17.40;99.90
25302;DHT22;13243;50.888;4.724;2023-04-03T16:20:13;17.80;99.30
25302;DHT22;13243;50.888;4.724;2023-04-03T16:25:15;17.90;99.50
25302;DHT22;13243;50.888;4.724;2023-04-03T16:30:17;18.40;99.10
25302;DHT22;13243;50.888;4.724;2023-04-03T16:35:19;18.00;99.90
25302;DHT22;13243;50.888;4.724;2023-04-03T16:40:21;18.00;99.30
25302;DHT22;13243;50.888;4.724;2023-04-03T16:45:23;17.50;99.10
25302;DHT22;13243;50.888;4.724;2023-04-03T16:50:25;17.40;98.90
25302;DHT22;13243;50.888;4.724;2023-04-03T16:55:26;17.70;99.90
25302;DHT22;13243;50.888;4.724;2023-04-03T17:00:30;17.40;99.30
25302;DHT22;13243;50.888;4.724;2023-04-03T17:05:32;17.10;99.20
25302;DHT22;13243;50.888;4.724;2023-04-03T17:10:34;16.60;99.40
25302;DHT22;13243;50.888;4.724;2023-04-03T17:15:37;16.00;99.40
25302;DHT22;13243;50.888;4.724;2023-04-03T17:20:39;14.80;99.80
25302;DHT22;13243;50.888;4.724;2023-04-03T17:25:41;13.80;99.90
25302;DHT22;13243;50.888;4.724;2023-04-03T17:30:43;13.40;99.90
25302;DHT22;13243;50.888;4.724;2023-04-03T17:35:45;13.00;99.90
25302;DHT22;13243;50.888;4.724;2023-04-03T17:40:47;12.40;99.90
25302;DHT22;13243;50.888;4.724;2023-04-03T17:45:49;12.20;99.90
25302;DHT22;13243;50.888;4.724;2023-04-03T17:50:53;11.80;99.90
25302;DHT22;13243;50.888;4.724;2023-04-03T17:55:55;11.80;99.90
25302;DHT22;13243;50.888;4.724;2023-04-03T18:00:57;11.30;99.90
25302;DHT22;13243;50.888;4.724;2023-04-03T18:06:05;11.50;99.90
25302;DHT22;13243;50.888;4.724;2023-04-03T18:11:07;11.20;99.90
25302;DHT22;13243;50.888;4.724;2023-04-03T18:16:11;11.20;99.90
25302;DHT22;13243;50.888;4.724;2023-04-03T18:21:14;10.70;99.90
25302;DHT22;13243;50.888;4.724;2023-04-03T18:26:16;10.50;99.90
25302;DHT22;13243;50.888;4.724;2023-04-03T18:31:21;10.40;99.90
25302;DHT22;13243;50.888;4.724;2023-04-03T18:36:26;10.30;99.90
25302;DHT22;13243;50.888;4.724;2023-04-03T18:41:31;10.10;99.90
25302;DHT22;13243;50.888;4.724;2023-04-03T18:46:34;9.90;99.90
25302;DHT22;13243;50.888;4.724;2023-04-03T18:51:36;9.80;99.90
25302;DHT22;13243;50.888;4.724;2023-04-03T18:56:41;10.00;99.90
25302;DHT22;13243;50.888;4.724;2023-04-03T19:01:43;9.70;99.90
25302;DHT22;13243;50.888;4.724;2023-04-03T19:06:45;9.60;99.90
25302;DHT22;13243;50.888;4.724;2023-04-03T19:11:47;9.60;99.90
25302;DHT22;13243;50.888;4.724;2023-04-03T19:16:49;9.50;99.90
25302;DHT22;13243;50.888;4.724;2023-04-03T19:21:51;9.40;99.90
25302;DHT22;13243;50.888;4.724;2023-04-03T19:26:53;9.10;99.90
25302;DHT22;13243;50.888;4.724;2023-04-03T19:31:55;9.10;99.90
25302;DHT22;13243;50.888;4.724;2023-04-03T19:36:56;8.90;99.90
25302;DHT22;13243;50.888;4.724;2023-04-03T19:41:59;8.90;99.90
25302;DHT22;13243;50.888;4.724;2023-04-03T19:47:02;8.80;99.90
25302;DHT22;13243;50.888;4.724;2023-04-03T19:52:06;8.70;99.90
25302;DHT22;13243;50.888;4.724;2023-04-03T19:57:08;8.40;99.90
25302;DHT22;13243;50.888;4.724;2023-04-03T20:02:10;8.50;99.90
25302;DHT22;13243;50.888;4.724;2023-04-03T20:07:12;8.30;99.90
25302;DHT22;13243;50.888;4.724;2023-04-03T20:12:14;8.10;99.90
25302;DHT22;13243;50.888;4.724;2023-04-03T20:17:16;7.90;99.90
25302;DHT22;13243;50.888;4.724;2023-04-03T20:22:17;7.80;99.90
25302;DHT22;13243;50.888;4.724;2023-04-03T20:27:19;7.70;99.90
25302;DHT22;13243;50.888;4.724;2023-04-03T20:32:21;7.50;99.90
25302;DHT22;13243;50.888;4.724;2023-04-03T20:37:23;7.40;99.90
25302;DHT22;13243;50.888;4.724;2023-04-03T20:42:26;7.50;99.90
25302;DHT22;13243;50.888;4.724;2023-04-03T20:47:28;7.40;99.90
25302;DHT22;13243;50.888;4.724;2023-04-03T20:52:31;7.50;99.90
25302;DHT22;13243;50.888;4.724;2023-04-03T20:57:35;7.50;99.90
25302;DHT22;13243;50.888;4.724;2023-04-03T21:02:37;7.50;99.90
25302;DHT22;13243;50.888;4.724;2023-04-03T21:24:09;7.10;99.90
25302;DHT22;13243;50.888;4.724;2023-04-03T21:29:12;7.00;99.90
25302;DHT22;13243;50.888;4.724;2023-04-03T21:34:14;6.90;99.90
25302;DHT22;13243;50.888;4.724;2023-04-03T21:39:16;6.90;99.90
25302;DHT22;13243;50.888;4.724;2023-04-03T21:44:19;6.70;99.90
25302;DHT22;13243;50.888;4.724;2023-04-03T21:49:22;6.60;99.90
25302;DHT22;13243;50.888;4.724;2023-04-03T21:54:24;6.70;99.90
25302;DHT22;13243;50.888;4.724;2023-04-03T21:59:26;6.60;99.90
25302;DHT22;13243;50.888;4.724;2023-04-03T22:04:28;6.50;99.90
25302;DHT22;13243;50.888;4.724;2023-04-03T22:09:33;6.40;99.90
25302;DHT22;13243;50.888;4.724;2023-04-03T22:14:35;6.40;99.90
25302;DHT22;13243;50.888;4.724;2023-04-03T22:19:37;6.30;99.90
25302;DHT22;13243;50.888;4.724;2023-04-03T22:24:39;6.20;99.90
25302;DHT22;13243;50.888;4.724;2023-04-03T22:29:41;6.30;99.90
25302;DHT22;13243;50.888;4.724;2023-04-03T22:34:43;6.20;99.90
25302;DHT22;13243;50.888;4.724;2023-04-03T22:39:45;6.20;99.90
25302;DHT22;13243;50.888;4.724;2023-04-03T22:44:47;6.10;99.90
25302;DHT22;13243;50.888;4.724;2023-04-03T22:49:49;6.00;99.90
25302;DHT22;13243;50.888;4.724;2023-04-03T22:54:50;5.90;99.90
25302;DHT22;13243;50.888;4.724;2023-04-03T22:59:52;5.90;99.90
25302;DHT22;13243;50.888;4.724;2023-04-03T23:04:54;5.70;99.90
25302;DHT22;13243;50.888;4.724;2023-04-03T23:09:58;5.60;99.90
25302;DHT22;13243;50.888;4.724;2023-04-03T23:14:59;5.60;99.90
25302;DHT22;13243;50.888;4.724;2023-04-03T23:20:01;5.60;99.90
25302;DHT22;13243;50.888;4.724;2023-04-03T23:25:03;5.60;99.90
25302;DHT22;13243;50.888;4.724;2023-04-03T23:30:06;5.60;99.90
25302;DHT22;13243;50.888;4.724;2023-04-03T23:35:08;5.50;99.90
25302;DHT22;13243;50.888;4.724;2023-04-03T23:40:10;5.40;99.90
25302;DHT22;13243;50.888;4.724;2023-04-03T23:45:12;5.40;99.90
25302;DHT22;13243;50.888;4.724;2023-04-03T23:50:14;5.20;99.90
25302;DHT22;13243;50.888;4.724;2023-04-03T23:55:17;5.20;99.90
